sensor_id;sensor_type;location;lat;lon;timestamp;P1;durP1;ratioP1;P2;durP2;ratioP2
23680;SDS011;62915;50.832;4.462;2023-08-12T00:01:12;10.77;;;5.30;;
23680;SDS011;62915;50.832;4.462;2023-08-12T00:03:38;11.68;;;4.75;;
23680;SDS011;62915;50.832;4.462;2023-08-12T00:06:03;11.48;;;5.15;;
23680;SDS011;62915;50.832;4.462;2023-08-12T00:08:30;11.57;;;5.10;;
23680;SDS011;62915;50.832;4.462;2023-08-12T00:10:56;11.15;;;4.93;;
23680;SDS011;62915;50.832;4.462;2023-08-12T00:13:22;9.77;;;5.82;;
23680;SDS011;62915;50.832;4.462;2023-08-12T00:15:47;8.60;;;5.45;;
23680;SDS011;62915;50.832;4.462;2023-08-12T00:18:13;13.40;;;5.53;;
23680;SDS011;62915;50.832;4.462;2023-08-12T00:20:41;11.77;;;5.22;;
23680;SDS011;62915;50.832;4.462;2023-08-12T00:23:07;7.95;;;4.93;;
23680;SDS011;62915;50.832;4.462;2023-08-12T00:25:33;10.55;;;5.20;;
23680;SDS011;62915;50.832;4.462;2023-08-12T00:27:59;8.05;;;5.03;;
23680;SDS011;62915;50.832;4.462;2023-08-12T00:30:25;10.88;;;5.70;;
23680;SDS011;62915;50.832;4.462;2023-08-12T00:32:50;11.25;;;5.68;;
23680;SDS011;62915;50.832;4.462;2023-08-12T00:35:16;7.82;;;5.43;;
23680;SDS011;62915;50.832;4.462;2023-08-12T00:37:42;10.80;;;6.20;;
23680;SDS011;62915;50.832;4.462;2023-08-12T00:40:08;9.77;;;5.53;;
23680;SDS011;62915;50.832;4.462;2023-08-12T00:42:34;10.90;;;5.40;;
23680;SDS011;62915;50.832;4.462;2023-08-12T00:45:01;10.05;;;4.75;;
23680;SDS011;62915;50.832;4.462;2023-08-12T00:47:27;13.07;;;5.18;;
23680;SDS011;62915;50.832;4.462;2023-08-12T00:49:54;9.98;;;5.43;;
23680;SDS011;62915;50.832;4.462;2023-08-12T00:52:22;12.70;;;5.70;;
23680;SDS011;62915;50.832;4.462;2023-08-12T00:54:48;11.05;;;5.43;;
23680;SDS011;62915;50.832;4.462;2023-08-12T00:57:14;8.00;;;5.28;;
23680;SDS011;62915;50.832;4.462;2023-08-12T00:59:40;10.27;;;5.38;;
23680;SDS011;62915;50.832;4.462;2023-08-12T01:02:09;13.00;;;5.78;;
23680;SDS011;62915;50.832;4.462;2023-08-12T01:04:35;12.43;;;5.65;;
23680;SDS011;62915;50.832;4.462;2023-08-12T01:07:01;10.63;;;5.35;;
23680;SDS011;62915;50.832;4.462;2023-08-12T01:09:28;8.20;;;5.25;;
23680;SDS011;62915;50.832;4.462;2023-08-12T01:14:29;11.10;;;5.97;;
23680;SDS011;62915;50.832;4.462;2023-08-12T01:22:01;12.70;;;5.63;;
23680;SDS011;62915;50.832;4.462;2023-08-12T01:24:33;11.85;;;6.32;;
23680;SDS011;62915;50.832;4.462;2023-08-12T01:27:03;10.38;;;6.18;;
23680;SDS011;62915;50.832;4.462;2023-08-12T01:29:29;11.40;;;6.35;;
23680;SDS011;62915;50.832;4.462;2023-08-12T01:31:58;11.93;;;6.25;;
23680;SDS011;62915;50.832;4.462;2023-08-12T01:37:02;14.32;;;6.38;;
23680;SDS011;62915;50.832;4.462;2023-08-12T01:39:32;11.05;;;6.50;;
23680;SDS011;62915;50.832;4.462;2023-08-12T01:41:58;11.60;;;6.88;;
23680;SDS011;62915;50.832;4.462;2023-08-12T01:44:25;11.57;;;6.10;;
23680;SDS011;62915;50.832;4.462;2023-08-12T01:46:51;12.70;;;5.95;;
23680;SDS011;62915;50.832;4.462;2023-08-12T01:49:17;10.30;;;6.15;;
23680;SDS011;62915;50.832;4.462;2023-08-12T01:51:42;8.18;;;6.05;;
23680;SDS011;62915;50.832;4.462;2023-08-12T01:54:08;14.98;;;6.55;;
23680;SDS011;62915;50.832;4.462;2023-08-12T01:56:35;9.18;;;6.30;;
23680;SDS011;62915;50.832;4.462;2023-08-12T01:59:01;14.50;;;6.82;;
23680;SDS011;62915;50.832;4.462;2023-08-12T02:01:26;15.25;;;7.22;;
23680;SDS011;62915;50.832;4.462;2023-08-12T02:03:52;12.93;;;6.72;;
23680;SDS011;62915;50.832;4.462;2023-08-12T02:06:18;15.57;;;6.85;;
23680;SDS011;62915;50.832;4.462;2023-08-12T02:08:44;11.73;;;7.10;;
23680;SDS011;62915;50.832;4.462;2023-08-12T02:11:10;14.13;;;7.32;;
23680;SDS011;62915;50.832;4.462;2023-08-12T02:13:36;14.18;;;7.03;;
23680;SDS011;62915;50.832;4.462;2023-08-12T02:16:01;12.80;;;7.10;;
23680;SDS011;62915;50.832;4.462;2023-08-12T02:18:27;12.20;;;6.97;;
23680;SDS011;62915;50.832;4.462;2023-08-12T02:20:53;10.80;;;6.93;;
23680;SDS011;62915;50.832;4.462;2023-08-12T02:23:19;12.10;;;7.13;;
23680;SDS011;62915;50.832;4.462;2023-08-12T02:25:44;10.75;;;6.70;;
23680;SDS011;62915;50.832;4.462;2023-08-12T02:28:11;11.50;;;7.32;;
23680;SDS011;62915;50.832;4.462;2023-08-12T02:30:36;12.05;;;6.90;;
23680;SDS011;62915;50.832;4.462;2023-08-12T02:33:02;13.50;;;6.75;;
23680;SDS011;62915;50.832;4.462;2023-08-12T02:35:28;12.40;;;7.18;;
23680;SDS011;62915;50.832;4.462;2023-08-12T02:37:54;13.45;;;7.35;;
23680;SDS011;62915;50.832;4.462;2023-08-12T02:40:20;14.07;;;8.23;;
23680;SDS011;62915;50.832;4.462;2023-08-12T02:42:45;15.50;;;8.35;;
23680;SDS011;62915;50.832;4.462;2023-08-12T02:45:11;12.77;;;6.97;;
23680;SDS011;62915;50.832;4.462;2023-08-12T02:47:37;9.75;;;6.82;;
23680;SDS011;62915;50.832;4.462;2023-08-12T02:50:02;13.32;;;7.75;;
23680;SDS011;62915;50.832;4.462;2023-08-12T02:52:28;12.85;;;7.70;;
23680;SDS011;62915;50.832;4.462;2023-08-12T02:54:54;11.15;;;7.90;;
23680;SDS011;62915;50.832;4.462;2023-08-12T02:57:21;15.13;;;8.45;;
23680;SDS011;62915;50.832;4.462;2023-08-12T02:59:47;12.35;;;7.82;;
23680;SDS011;62915;50.832;4.462;2023-08-12T03:02:12;13.63;;;7.95;;
23680;SDS011;62915;50.832;4.462;2023-08-12T03:04:38;14.25;;;8.25;;
23680;SDS011;62915;50.832;4.462;2023-08-12T03:07:04;20.40;;;7.95;;
23680;SDS011;62915;50.832;4.462;2023-08-12T03:09:30;15.15;;;8.30;;
23680;SDS011;62915;50.832;4.462;2023-08-12T03:11:55;13.50;;;7.90;;
23680;SDS011;62915;50.832;4.462;2023-08-12T03:14:21;15.10;;;7.90;;
23680;SDS011;62915;50.832;4.462;2023-08-12T03:16:47;11.98;;;7.47;;
23680;SDS011;62915;50.832;4.462;2023-08-12T03:19:13;20.00;;;8.35;;
23680;SDS011;62915;50.832;4.462;2023-08-12T03:21:39;12.35;;;7.60;;
23680;SDS011;62915;50.832;4.462;2023-08-12T03:24:17;17.38;;;8.18;;
23680;SDS011;62915;50.832;4.462;2023-08-12T03:26:43;15.27;;;7.93;;
23680;SDS011;62915;50.832;4.462;2023-08-12T03:29:08;15.18;;;7.97;;
23680;SDS011;62915;50.832;4.462;2023-08-12T03:31:34;13.02;;;7.65;;
23680;SDS011;62915;50.832;4.462;2023-08-12T03:34:00;12.30;;;7.93;;
23680;SDS011;62915;50.832;4.462;2023-08-12T03:36:26;11.75;;;8.23;;
23680;SDS011;62915;50.832;4.462;2023-08-12T03:38:52;13.07;;;8.02;;
23680;SDS011;62915;50.832;4.462;2023-08-12T03:41:18;12.20;;;7.80;;
23680;SDS011;62915;50.832;4.462;2023-08-12T03:43:43;12.05;;;8.23;;
23680;SDS011;62915;50.832;4.462;2023-08-12T03:46:09;10.98;;;8.63;;
23680;SDS011;62915;50.832;4.462;2023-08-12T03:48:37;13.85;;;8.27;;
23680;SDS011;62915;50.832;4.462;2023-08-12T03:51:02;15.77;;;8.27;;
23680;SDS011;62915;50.832;4.462;2023-08-12T03:53:28;12.55;;;7.93;;
23680;SDS011;62915;50.832;4.462;2023-08-12T03:55:54;13.02;;;7.60;;
23680;SDS011;62915;50.832;4.462;2023-08-12T03:58:19;12.65;;;7.60;;
23680;SDS011;62915;50.832;4.462;2023-08-12T04:00:45;13.30;;;7.70;;
23680;SDS011;62915;50.832;4.462;2023-08-12T04:03:11;11.00;;;7.07;;
23680;SDS011;62915;50.832;4.462;2023-08-12T04:05:37;13.40;;;6.93;;
23680;SDS011;62915;50.832;4.462;2023-08-12T04:08:02;8.48;;;6.43;;
23680;SDS011;62915;50.832;4.462;2023-08-12T04:10:29;7.05;;;6.28;;
23680;SDS011;62915;50.832;4.462;2023-08-12T04:12:55;7.88;;;6.20;;
23680;SDS011;62915;50.832;4.462;2023-08-12T04:15:21;8.63;;;6.30;;
23680;SDS011;62915;50.832;4.462;2023-08-12T04:17:46;7.07;;;5.75;;
23680;SDS011;62915;50.832;4.462;2023-08-12T04:20:12;6.57;;;5.65;;
23680;SDS011;62915;50.832;4.462;2023-08-12T04:22:38;6.20;;;5.60;;
23680;SDS011;62915;50.832;4.462;2023-08-12T04:25:04;7.88;;;5.15;;
23680;SDS011;62915;50.832;4.462;2023-08-12T04:27:30;5.72;;;4.40;;
23680;SDS011;62915;50.832;4.462;2023-08-12T04:29:55;5.32;;;4.82;;
23680;SDS011;62915;50.832;4.462;2023-08-12T04:32:21;6.10;;;4.93;;
23680;SDS011;62915;50.832;4.462;2023-08-12T04:34:47;9.98;;;4.35;;
23680;SDS011;62915;50.832;4.462;2023-08-12T04:37:13;5.57;;;4.32;;
23680;SDS011;62915;50.832;4.462;2023-08-12T04:39:38;6.40;;;4.53;;
23680;SDS011;62915;50.832;4.462;2023-08-12T04:42:06;5.15;;;4.10;;
23680;SDS011;62915;50.832;4.462;2023-08-12T04:44:32;4.80;;;4.22;;
23680;SDS011;62915;50.832;4.462;2023-08-12T04:46:57;5.22;;;4.32;;
23680;SDS011;62915;50.832;4.462;2023-08-12T04:49:23;4.28;;;3.78;;
23680;SDS011;62915;50.832;4.462;2023-08-12T04:51:51;5.95;;;3.60;;
23680;SDS011;62915;50.832;4.462;2023-08-12T04:54:17;3.80;;;3.40;;
23680;SDS011;62915;50.832;4.462;2023-08-12T04:56:43;3.67;;;3.28;;
23680;SDS011;62915;50.832;4.462;2023-08-12T04:59:09;3.90;;;2.97;;
23680;SDS011;62915;50.832;4.462;2023-08-12T05:01:35;3.97;;;3.47;;
23680;SDS011;62915;50.832;4.462;2023-08-12T05:04:01;3.92;;;3.42;;
23680;SDS011;62915;50.832;4.462;2023-08-12T05:06:27;4.72;;;3.30;;
23680;SDS011;62915;50.832;4.462;2023-08-12T05:08:52;4.18;;;3.22;;
23680;SDS011;62915;50.832;4.462;2023-08-12T05:11:18;6.03;;;4.03;;
23680;SDS011;62915;50.832;4.462;2023-08-12T05:13:44;3.67;;;3.38;;
23680;SDS011;62915;50.832;4.462;2023-08-12T05:16:09;5.07;;;3.90;;
23680;SDS011;62915;50.832;4.462;2023-08-12T05:18:35;4.50;;;3.30;;
23680;SDS011;62915;50.832;4.462;2023-08-12T05:21:01;7.30;;;4.88;;
23680;SDS011;62915;50.832;4.462;2023-08-12T05:23:26;6.63;;;4.95;;
23680;SDS011;62915;50.832;4.462;2023-08-12T05:25:52;7.43;;;4.85;;
23680;SDS011;62915;50.832;4.462;2023-08-12T05:28:18;8.15;;;4.60;;
23680;SDS011;62915;50.832;4.462;2023-08-12T05:30:44;6.90;;;4.68;;
23680;SDS011;62915;50.832;4.462;2023-08-12T05:33:10;5.53;;;4.70;;
23680;SDS011;62915;50.832;4.462;2023-08-12T05:35:36;4.72;;;4.22;;
23680;SDS011;62915;50.832;4.462;2023-08-12T05:38:02;5.00;;;4.50;;
23680;SDS011;62915;50.832;4.462;2023-08-12T05:40:28;6.60;;;4.28;;
23680;SDS011;62915;50.832;4.462;2023-08-12T05:42:53;7.07;;;4.15;;
23680;SDS011;62915;50.832;4.462;2023-08-12T05:45:19;7.45;;;4.40;;
23680;SDS011;62915;50.832;4.462;2023-08-12T05:47:45;4.55;;;4.15;;
23680;SDS011;62915;50.832;4.462;2023-08-12T05:50:11;5.40;;;4.35;;
23680;SDS011;62915;50.832;4.462;2023-08-12T05:52:36;4.93;;;4.50;;
23680;SDS011;62915;50.832;4.462;2023-08-12T05:55:02;4.93;;;3.85;;
23680;SDS011;62915;50.832;4.462;2023-08-12T05:57:28;4.63;;;4.20;;
23680;SDS011;62915;50.832;4.462;2023-08-12T05:59:54;4.53;;;4.13;;
23680;SDS011;62915;50.832;4.462;2023-08-12T06:02:20;9.50;;;4.47;;
23680;SDS011;62915;50.832;4.462;2023-08-12T06:04:46;6.03;;;4.82;;
23680;SDS011;62915;50.832;4.462;2023-08-12T06:07:11;6.75;;;4.97;;
23680;SDS011;62915;50.832;4.462;2023-08-12T06:09:37;6.35;;;4.50;;
23680;SDS011;62915;50.832;4.462;2023-08-12T06:12:03;6.80;;;4.93;;
23680;SDS011;62915;50.832;4.462;2023-08-12T06:14:29;8.10;;;5.38;;
23680;SDS011;62915;50.832;4.462;2023-08-12T06:16:55;8.23;;;5.38;;
23680;SDS011;62915;50.832;4.462;2023-08-12T06:19:21;6.97;;;5.10;;
23680;SDS011;62915;50.832;4.462;2023-08-12T06:21:47;7.78;;;4.50;;
23680;SDS011;62915;50.832;4.462;2023-08-12T06:24:12;7.80;;;4.50;;
23680;SDS011;62915;50.832;4.462;2023-08-12T06:26:38;5.00;;;3.60;;
23680;SDS011;62915;50.832;4.462;2023-08-12T06:29:04;6.90;;;4.15;;
23680;SDS011;62915;50.832;4.462;2023-08-12T06:31:30;4.43;;;3.95;;
23680;SDS011;62915;50.832;4.462;2023-08-12T06:33:55;4.20;;;3.22;;
23680;SDS011;62915;50.832;4.462;2023-08-12T06:36:22;5.80;;;4.05;;
23680;SDS011;62915;50.832;4.462;2023-08-12T06:38:48;5.63;;;3.72;;
23680;SDS011;62915;50.832;4.462;2023-08-12T06:41:14;5.20;;;3.63;;
23680;SDS011;62915;50.832;4.462;2023-08-12T06:43:40;3.97;;;3.58;;
23680;SDS011;62915;50.832;4.462;2023-08-12T06:46:06;4.38;;;3.15;;
23680;SDS011;62915;50.832;4.462;2023-08-12T06:48:32;3.45;;;2.97;;
23680;SDS011;62915;50.832;4.462;2023-08-12T06:50:58;3.63;;;3.00;;
23680;SDS011;62915;50.832;4.462;2023-08-12T06:53:27;3.30;;;2.60;;
23680;SDS011;62915;50.832;4.462;2023-08-12T06:55:53;5.57;;;2.72;;
23680;SDS011;62915;50.832;4.462;2023-08-12T06:58:19;4.35;;;2.53;;
23680;SDS011;62915;50.832;4.462;2023-08-12T07:00:45;2.60;;;2.40;;
23680;SDS011;62915;50.832;4.462;2023-08-12T07:03:10;3.63;;;2.50;;
23680;SDS011;62915;50.832;4.462;2023-08-12T07:05:37;3.28;;;2.70;;
23680;SDS011;62915;50.832;4.462;2023-08-12T07:08:03;3.45;;;2.53;;
23680;SDS011;62915;50.832;4.462;2023-08-12T07:10:29;3.42;;;2.80;;
23680;SDS011;62915;50.832;4.462;2023-08-12T07:12:55;3.72;;;3.13;;
23680;SDS011;62915;50.832;4.462;2023-08-12T07:15:21;3.10;;;2.80;;
23680;SDS011;62915;50.832;4.462;2023-08-12T07:17:46;3.55;;;2.85;;
23680;SDS011;62915;50.832;4.462;2023-08-12T07:20:13;2.83;;;2.50;;
23680;SDS011;62915;50.832;4.462;2023-08-12T07:22:39;3.17;;;2.45;;
23680;SDS011;62915;50.832;4.462;2023-08-12T07:25:04;5.03;;;3.05;;
23680;SDS011;62915;50.832;4.462;2023-08-12T07:27:31;4.88;;;3.75;;
23680;SDS011;62915;50.832;4.462;2023-08-12T07:29:56;4.50;;;4.10;;
23680;SDS011;62915;50.832;4.462;2023-08-12T07:32:22;6.57;;;5.97;;
23680;SDS011;62915;50.832;4.462;2023-08-12T07:34:48;9.48;;;8.30;;
23680;SDS011;62915;50.832;4.462;2023-08-12T07:37:14;10.65;;;8.77;;
23680;SDS011;62915;50.832;4.462;2023-08-12T07:39:39;10.73;;;9.68;;
23680;SDS011;62915;50.832;4.462;2023-08-12T07:42:05;14.65;;;11.70;;
23680;SDS011;62915;50.832;4.462;2023-08-12T07:44:31;13.88;;;12.60;;
23680;SDS011;62915;50.832;4.462;2023-08-12T07:46:57;14.90;;;12.02;;
23680;SDS011;62915;50.832;4.462;2023-08-12T07:49:22;15.98;;;13.77;;
23680;SDS011;62915;50.832;4.462;2023-08-12T07:51:48;15.73;;;11.95;;
23680;SDS011;62915;50.832;4.462;2023-08-12T07:54:14;13.65;;;12.25;;
23680;SDS011;62915;50.832;4.462;2023-08-12T07:56:41;13.63;;;12.23;;
23680;SDS011;62915;50.832;4.462;2023-08-12T07:59:07;11.75;;;10.20;;
23680;SDS011;62915;50.832;4.462;2023-08-12T08:01:33;11.23;;;10.15;;
23680;SDS011;62915;50.832;4.462;2023-08-12T08:03:58;10.85;;;9.85;;
23680;SDS011;62915;50.832;4.462;2023-08-12T08:06:24;11.43;;;10.32;;
23680;SDS011;62915;50.832;4.462;2023-08-12T08:08:50;12.60;;;11.48;;
23680;SDS011;62915;50.832;4.462;2023-08-12T08:11:16;13.30;;;11.95;;
23680;SDS011;62915;50.832;4.462;2023-08-12T08:13:41;15.85;;;14.25;;
23680;SDS011;62915;50.832;4.462;2023-08-12T08:16:07;16.80;;;14.20;;
23680;SDS011;62915;50.832;4.462;2023-08-12T08:18:33;16.40;;;14.73;;
23680;SDS011;62915;50.832;4.462;2023-08-12T08:20:59;14.23;;;12.65;;
23680;SDS011;62915;50.832;4.462;2023-08-12T08:23:24;10.13;;;8.85;;
23680;SDS011;62915;50.832;4.462;2023-08-12T08:25:50;8.48;;;7.78;;
23680;SDS011;62915;50.832;4.462;2023-08-12T08:28:16;8.82;;;7.88;;
23680;SDS011;62915;50.832;4.462;2023-08-12T08:30:43;8.63;;;6.78;;
23680;SDS011;62915;50.832;4.462;2023-08-12T08:33:09;7.93;;;7.20;;
23680;SDS011;62915;50.832;4.462;2023-08-12T08:35:35;9.55;;;8.65;;
23680;SDS011;62915;50.832;4.462;2023-08-12T08:38:00;10.07;;;7.35;;
23680;SDS011;62915;50.832;4.462;2023-08-12T08:40:26;8.63;;;6.35;;
23680;SDS011;62915;50.832;4.462;2023-08-12T08:42:53;6.18;;;5.57;;
23680;SDS011;62915;50.832;4.462;2023-08-12T08:45:19;3.90;;;3.50;;
23680;SDS011;62915;50.832;4.462;2023-08-12T08:47:47;4.63;;;3.03;;
23680;SDS011;62915;50.832;4.462;2023-08-12T08:50:15;3.15;;;2.85;;
23680;SDS011;62915;50.832;4.462;2023-08-12T08:52:42;2.63;;;2.38;;
23680;SDS011;62915;50.832;4.462;2023-08-12T08:55:08;3.45;;;2.28;;
23680;SDS011;62915;50.832;4.462;2023-08-12T08:57:37;5.25;;;2.40;;
23680;SDS011;62915;50.832;4.462;2023-08-12T09:00:04;2.10;;;1.60;;
23680;SDS011;62915;50.832;4.462;2023-08-12T09:02:35;3.60;;;1.77;;
23680;SDS011;62915;50.832;4.462;2023-08-12T09:05:01;2.10;;;1.90;;
23680;SDS011;62915;50.832;4.462;2023-08-12T09:07:28;3.42;;;1.92;;
23680;SDS011;62915;50.832;4.462;2023-08-12T09:09:56;3.47;;;2.03;;
23680;SDS011;62915;50.832;4.462;2023-08-12T09:12:25;3.20;;;1.98;;
23680;SDS011;62915;50.832;4.462;2023-08-12T09:14:52;4.28;;;2.15;;
23680;SDS011;62915;50.832;4.462;2023-08-12T09:17:18;2.80;;;2.10;;
23680;SDS011;62915;50.832;4.462;2023-08-12T09:19:44;5.45;;;2.13;;
23680;SDS011;62915;50.832;4.462;2023-08-12T09:22:09;2.58;;;2.17;;
23680;SDS011;62915;50.832;4.462;2023-08-12T09:24:35;4.18;;;2.15;;
23680;SDS011;62915;50.832;4.462;2023-08-12T09:27:01;3.55;;;2.13;;
23680;SDS011;62915;50.832;4.462;2023-08-12T09:29:34;4.95;;;2.40;;
23680;SDS011;62915;50.832;4.462;2023-08-12T09:32:18;4.78;;;2.03;;
23680;SDS011;62915;50.832;4.462;2023-08-12T09:37:21;5.40;;;1.90;;
23680;SDS011;62915;50.832;4.462;2023-08-12T09:39:50;3.35;;;1.50;;
23680;SDS011;62915;50.832;4.462;2023-08-12T09:42:17;4.80;;;1.95;;
23680;SDS011;62915;50.832;4.462;2023-08-12T09:44:43;4.85;;;1.90;;
23680;SDS011;62915;50.832;4.462;2023-08-12T09:47:09;5.03;;;2.13;;
23680;SDS011;62915;50.832;4.462;2023-08-12T09:49:36;7.90;;;2.38;;
23680;SDS011;62915;50.832;4.462;2023-08-12T09:52:03;7.18;;;2.17;;
23680;SDS011;62915;50.832;4.462;2023-08-12T09:54:32;4.80;;;2.03;;
23680;SDS011;62915;50.832;4.462;2023-08-12T09:57:02;3.13;;;1.63;;
23680;SDS011;62915;50.832;4.462;2023-08-12T09:59:31;3.88;;;1.70;;
23680;SDS011;62915;50.832;4.462;2023-08-12T10:01:59;5.93;;;1.55;;
23680;SDS011;62915;50.832;4.462;2023-08-12T10:04:29;5.90;;;2.00;;
23680;SDS011;62915;50.832;4.462;2023-08-12T10:07:07;2.97;;;1.92;;
23680;SDS011;62915;50.832;4.462;2023-08-12T10:09:37;5.85;;;1.50;;
23680;SDS011;62915;50.832;4.462;2023-08-12T10:12:04;7.32;;;1.98;;
23680;SDS011;62915;50.832;4.462;2023-08-12T10:14:34;5.93;;;1.73;;
23680;SDS011;62915;50.832;4.462;2023-08-12T10:17:00;6.40;;;1.70;;
23680;SDS011;62915;50.832;4.462;2023-08-12T10:19:26;4.30;;;1.65;;
23680;SDS011;62915;50.832;4.462;2023-08-12T10:21:56;5.75;;;1.85;;
23680;SDS011;62915;50.832;4.462;2023-08-12T10:24:23;5.57;;;1.80;;
23680;SDS011;62915;50.832;4.462;2023-08-12T10:26:52;5.68;;;1.70;;
23680;SDS011;62915;50.832;4.462;2023-08-12T10:29:19;5.30;;;1.70;;
23680;SDS011;62915;50.832;4.462;2023-08-12T10:31:46;7.22;;;3.10;;
23680;SDS011;62915;50.832;4.462;2023-08-12T10:34:24;3.67;;;2.70;;
23680;SDS011;62915;50.832;4.462;2023-08-12T10:36:54;7.50;;;4.57;;
23680;SDS011;62915;50.832;4.462;2023-08-12T10:39:24;6.32;;;2.92;;
23680;SDS011;62915;50.832;4.462;2023-08-12T10:41:51;6.60;;;2.70;;
23680;SDS011;62915;50.832;4.462;2023-08-12T10:44:20;6.82;;;2.70;;
23680;SDS011;62915;50.832;4.462;2023-08-12T10:46:50;3.25;;;1.90;;
23680;SDS011;62915;50.832;4.462;2023-08-12T10:49:18;7.30;;;2.47;;
23680;SDS011;62915;50.832;4.462;2023-08-12T10:51:54;4.68;;;1.85;;
23680;SDS011;62915;50.832;4.462;2023-08-12T10:54:23;6.75;;;2.30;;
23680;SDS011;62915;50.832;4.462;2023-08-12T11:00:02;7.88;;;2.50;;
23680;SDS011;62915;50.832;4.462;2023-08-12T11:04:56;5.40;;;2.22;;
23680;SDS011;62915;50.832;4.462;2023-08-12T11:07:42;6.00;;;2.20;;
23680;SDS011;62915;50.832;4.462;2023-08-12T11:10:13;5.55;;;2.20;;
23680;SDS011;62915;50.832;4.462;2023-08-12T11:15:29;10.57;;;2.83;;
23680;SDS011;62915;50.832;4.462;2023-08-12T11:18:14;10.02;;;4.20;;
23680;SDS011;62915;50.832;4.462;2023-08-12T11:20:42;13.43;;;5.28;;
23680;SDS011;62915;50.832;4.462;2023-08-12T11:23:08;9.60;;;2.70;;
23680;SDS011;62915;50.832;4.462;2023-08-12T11:25:36;5.05;;;1.83;;
23680;SDS011;62915;50.832;4.462;2023-08-12T11:28:07;7.72;;;2.40;;
23680;SDS011;62915;50.832;4.462;2023-08-12T11:30:33;5.95;;;2.05;;
23680;SDS011;62915;50.832;4.462;2023-08-12T11:33:01;7.30;;;1.80;;
23680;SDS011;62915;50.832;4.462;2023-08-12T11:35:27;8.20;;;1.95;;
23680;SDS011;62915;50.832;4.462;2023-08-12T11:37:57;8.93;;;2.15;;
23680;SDS011;62915;50.832;4.462;2023-08-12T11:40:24;5.22;;;1.60;;
23680;SDS011;62915;50.832;4.462;2023-08-12T11:42:52;6.00;;;1.70;;
23680;SDS011;62915;50.832;4.462;2023-08-12T11:45:19;11.30;;;2.03;;
23680;SDS011;62915;50.832;4.462;2023-08-12T11:47:46;6.63;;;1.77;;
23680;SDS011;62915;50.832;4.462;2023-08-12T11:50:17;5.55;;;1.60;;
23680;SDS011;62915;50.832;4.462;2023-08-12T11:52:48;7.82;;;1.73;;
23680;SDS011;62915;50.832;4.462;2023-08-12T11:55:14;3.50;;;1.38;;
23680;SDS011;62915;50.832;4.462;2023-08-12T11:57:41;5.95;;;1.48;;
23680;SDS011;62915;50.832;4.462;2023-08-12T12:00:09;7.50;;;1.85;;
23680;SDS011;62915;50.832;4.462;2023-08-12T12:02:45;4.63;;;1.48;;
23680;SDS011;62915;50.832;4.462;2023-08-12T12:05:14;8.32;;;1.77;;
23680;SDS011;62915;50.832;4.462;2023-08-12T12:07:40;4.97;;;1.80;;
23680;SDS011;62915;50.832;4.462;2023-08-12T12:10:06;7.95;;;2.05;;
23680;SDS011;62915;50.832;4.462;2023-08-12T12:12:34;5.45;;;1.90;;
23680;SDS011;62915;50.832;4.462;2023-08-12T12:15:00;3.55;;;1.92;;
23680;SDS011;62915;50.832;4.462;2023-08-12T12:17:27;8.60;;;2.03;;
23680;SDS011;62915;50.832;4.462;2023-08-12T12:19:54;7.38;;;2.22;;
23680;SDS011;62915;50.832;4.462;2023-08-12T12:22:31;6.70;;;1.83;;
23680;SDS011;62915;50.832;4.462;2023-08-12T12:25:04;5.78;;;2.20;;
23680;SDS011;62915;50.832;4.462;2023-08-12T12:27:34;7.28;;;2.60;;
23680;SDS011;62915;50.832;4.462;2023-08-12T12:30:01;6.75;;;2.22;;
23680;SDS011;62915;50.832;4.462;2023-08-12T12:32:27;5.35;;;2.08;;
23680;SDS011;62915;50.832;4.462;2023-08-12T12:34:54;5.65;;;2.92;;
23680;SDS011;62915;50.832;4.462;2023-08-12T12:37:20;8.18;;;3.15;;
23680;SDS011;62915;50.832;4.462;2023-08-12T12:39:46;6.18;;;2.90;;
23680;SDS011;62915;50.832;4.462;2023-08-12T12:42:12;7.22;;;3.13;;
23680;SDS011;62915;50.832;4.462;2023-08-12T12:44:38;6.75;;;2.55;;
23680;SDS011;62915;50.832;4.462;2023-08-12T12:47:03;7.97;;;3.25;;
23680;SDS011;62915;50.832;4.462;2023-08-12T12:49:29;7.93;;;3.22;;
23680;SDS011;62915;50.832;4.462;2023-08-12T12:51:55;6.30;;;3.10;;
23680;SDS011;62915;50.832;4.462;2023-08-12T12:54:21;6.40;;;2.80;;
23680;SDS011;62915;50.832;4.462;2023-08-12T12:56:46;7.22;;;3.35;;
23680;SDS011;62915;50.832;4.462;2023-08-12T12:59:13;14.52;;;3.63;;
23680;SDS011;62915;50.832;4.462;2023-08-12T13:01:41;5.72;;;2.97;;
23680;SDS011;62915;50.832;4.462;2023-08-12T13:04:07;4.22;;;2.95;;
23680;SDS011;62915;50.832;4.462;2023-08-12T13:06:33;6.00;;;3.40;;
23680;SDS011;62915;50.832;4.462;2023-08-12T13:08:59;6.82;;;3.00;;
23680;SDS011;62915;50.832;4.462;2023-08-12T13:11:25;7.00;;;3.80;;
23680;SDS011;62915;50.832;4.462;2023-08-12T13:13:51;7.00;;;3.70;;
23680;SDS011;62915;50.832;4.462;2023-08-12T13:16:19;7.38;;;2.45;;
23680;SDS011;62915;50.832;4.462;2023-08-12T13:18:45;4.43;;;2.00;;
23680;SDS011;62915;50.832;4.462;2023-08-12T13:21:11;4.97;;;2.00;;
23680;SDS011;62915;50.832;4.462;2023-08-12T13:23:37;10.30;;;2.15;;
23680;SDS011;62915;50.832;4.462;2023-08-12T13:26:03;81.68;;;8.38;;
23680;SDS011;62915;50.832;4.462;2023-08-12T13:28:30;11.57;;;2.33;;
23680;SDS011;62915;50.832;4.462;2023-08-12T13:30:57;32.55;;;3.67;;
23680;SDS011;62915;50.832;4.462;2023-08-12T13:33:23;12.77;;;2.80;;
23680;SDS011;62915;50.832;4.462;2023-08-12T13:35:49;8.93;;;2.17;;
23680;SDS011;62915;50.832;4.462;2023-08-12T13:38:14;4.93;;;1.75;;
23680;SDS011;62915;50.832;4.462;2023-08-12T13:40:40;6.57;;;2.10;;
23680;SDS011;62915;50.832;4.462;2023-08-12T13:43:08;6.18;;;1.90;;
23680;SDS011;62915;50.832;4.462;2023-08-12T13:45:36;4.40;;;2.17;;
23680;SDS011;62915;50.832;4.462;2023-08-12T13:48:01;4.03;;;2.00;;
23680;SDS011;62915;50.832;4.462;2023-08-12T13:50:28;5.43;;;2.00;;
23680;SDS011;62915;50.832;4.462;2023-08-12T13:52:54;6.03;;;2.10;;
23680;SDS011;62915;50.832;4.462;2023-08-12T13:55:21;5.32;;;2.05;;
23680;SDS011;62915;50.832;4.462;2023-08-12T13:57:47;6.03;;;1.98;;
23680;SDS011;62915;50.832;4.462;2023-08-12T14:00:13;3.85;;;1.98;;
23680;SDS011;62915;50.832;4.462;2023-08-12T14:02:39;3.75;;;1.88;;
23680;SDS011;62915;50.832;4.462;2023-08-12T14:05:07;6.45;;;2.15;;
23680;SDS011;62915;50.832;4.462;2023-08-12T14:07:33;4.90;;;1.73;;
23680;SDS011;62915;50.832;4.462;2023-08-12T14:09:59;7.03;;;2.25;;
23680;SDS011;62915;50.832;4.462;2023-08-12T14:12:26;4.47;;;1.70;;
23680;SDS011;62915;50.832;4.462;2023-08-12T14:14:52;93.43;;;6.65;;
23680;SDS011;62915;50.832;4.462;2023-08-12T14:17:18;37.63;;;4.38;;
23680;SDS011;62915;50.832;4.462;2023-08-12T14:19:48;11.30;;;2.28;;
23680;SDS011;62915;50.832;4.462;2023-08-12T14:22:16;7.50;;;1.48;;
23680;SDS011;62915;50.832;4.462;2023-08-12T14:24:42;7.00;;;2.00;;
23680;SDS011;62915;50.832;4.462;2023-08-12T14:27:09;6.97;;;2.20;;
23680;SDS011;62915;50.832;4.462;2023-08-12T14:29:35;7.70;;;1.88;;
23680;SDS011;62915;50.832;4.462;2023-08-12T14:32:01;8.07;;;1.88;;
23680;SDS011;62915;50.832;4.462;2023-08-12T14:34:27;5.40;;;1.90;;
23680;SDS011;62915;50.832;4.462;2023-08-12T14:36:53;4.10;;;1.73;;
23680;SDS011;62915;50.832;4.462;2023-08-12T14:39:18;7.72;;;2.05;;
23680;SDS011;62915;50.832;4.462;2023-08-12T14:41:44;3.08;;;1.58;;
23680;SDS011;62915;50.832;4.462;2023-08-12T14:44:10;5.47;;;1.65;;
23680;SDS011;62915;50.832;4.462;2023-08-12T14:46:35;5.50;;;2.00;;
23680;SDS011;62915;50.832;4.462;2023-08-12T14:49:01;12.40;;;2.88;;
23680;SDS011;62915;50.832;4.462;2023-08-12T14:51:29;10.93;;;1.90;;
23680;SDS011;62915;50.832;4.462;2023-08-12T14:53:55;8.48;;;2.03;;
23680;SDS011;62915;50.832;4.462;2023-08-12T14:56:21;14.68;;;2.50;;
23680;SDS011;62915;50.832;4.462;2023-08-12T14:58:47;5.07;;;1.50;;
23680;SDS011;62915;50.832;4.462;2023-08-12T15:01:12;7.60;;;2.40;;